createdAt,value
2022-12-29T00:02:17.410Z,73.53
2022-12-29T00:05:04.589Z,73.36
2022-12-29T00:07:51.078Z,73.42
2022-12-29T00:10:38.093Z,73.34
2022-12-29T00:13:47.060Z,73.20
2022-12-29T00:16:35.475Z,73.06
2022-12-29T00:19:41.018Z,73.14
2022-12-29T00:22:46.392Z,73.04
2022-12-29T00:25:52.118Z,72.92
2022-12-29T00:28:57.138Z,72.70
2022-12-29T00:32:02.441Z,72.82
2022-12-29T00:35:07.560Z,72.68
2022-12-29T00:38:22.681Z,72.60
2022-12-29T00:41:28.905Z,72.69
2022-12-29T00:44:18.316Z,72.82
2022-12-29T00:47:05.562Z,72.90
2022-12-29T00:49:54.006Z,72.85
2022-12-29T00:52:40.816Z,72.79
2022-12-29T00:55:27.470Z,72.90
2022-12-29T00:58:14.104Z,72.97
2022-12-29T01:01:04.962Z,72.83
2022-12-29T01:03:54.115Z,72.73
2022-12-29T01:06:43.847Z,72.77
2022-12-29T01:09:49.484Z,72.86
2022-12-29T01:12:51.150Z,72.85
2022-12-29T01:15:39.226Z,72.90
2022-12-29T01:18:27.778Z,72.85
2022-12-29T01:21:14.392Z,72.88
2022-12-29T01:24:00.976Z,72.79
2022-12-29T01:26:51.812Z,72.90
2022-12-29T01:29:38.453Z,73.02
2022-12-29T01:32:25.465Z,73.06
2022-12-29T01:35:12.192Z,72.78
2022-12-29T01:42:23.869Z,72.75
2022-12-29T01:45:18.282Z,72.81
2022-12-29T01:48:07.345Z,72.59
2022-12-29T01:50:55.710Z,72.56
2022-12-29T01:53:44.061Z,72.47
2022-12-29T01:56:48.875Z,72.40
2022-12-29T01:59:41.579Z,72.50
2022-12-29T02:02:35.967Z,72.35
2022-12-29T02:05:41.890Z,72.18
2022-12-29T02:08:30.381Z,72.09
2022-12-29T02:11:17.520Z,72.16
2022-12-29T02:14:10.617Z,72.42
2022-12-29T02:17:25.483Z,72.49
2022-12-29T02:20:33.494Z,72.66
2022-12-29T02:23:50.249Z,72.88
2022-12-29T02:27:15.670Z,73.39
2022-12-29T02:30:06.368Z,74.08
2022-12-29T02:33:06.298Z,74.32
2022-12-29T02:36:15.733Z,74.92
2022-12-29T02:39:24.453Z,75.58
2022-12-29T02:42:24.760Z,76.25
2022-12-29T02:45:24.198Z,76.72
2022-12-29T02:48:21.821Z,76.88
2022-12-29T02:55:57.586Z,78.14
2022-12-29T02:58:44.658Z,78.69
2022-12-29T03:02:19.302Z,79.22
2022-12-29T03:05:22.379Z,79.60
2022-12-29T03:10:05.876Z,80.88
2022-12-29T03:14:47.162Z,81.92
2022-12-29T03:17:55.497Z,82.79
2022-12-29T03:22:19.793Z,83.62
2022-12-29T03:37:17.794Z,85.52
2022-12-29T03:40:12.987Z,86.20
2022-12-29T03:44:12.053Z,86.83
2022-12-29T03:58:35.932Z,87.98
2022-12-29T04:01:30.471Z,88.18
2022-12-29T04:05:41.139Z,88.35
2022-12-29T04:09:05.035Z,88.47
2022-12-29T04:13:03.659Z,88.69
2022-12-29T04:15:50.300Z,88.76
2022-12-29T04:18:37.070Z,88.70
2022-12-29T04:21:23.368Z,88.36
2022-12-29T04:24:10.705Z,88.23
2022-12-29T04:28:24.767Z,88.07
2022-12-29T04:31:46.903Z,87.89
2022-12-29T04:35:08.947Z,87.95
2022-12-29T04:37:55.576Z,87.80
2022-12-29T04:41:13.814Z,87.76
2022-12-29T04:44:01.499Z,87.92
2022-12-29T04:46:48.361Z,87.82
2022-12-29T04:49:35.100Z,87.78
2022-12-29T04:52:22.681Z,87.96
2022-12-29T04:55:09.528Z,88.03
2022-12-29T04:57:56.764Z,87.86
2022-12-29T05:00:44.869Z,87.90
2022-12-29T05:03:33.907Z,87.77
2022-12-29T05:07:23.491Z,87.82
2022-12-29T05:10:11.599Z,87.63
2022-12-29T05:12:58.972Z,87.57
2022-12-29T05:15:53.211Z,87.39
2022-12-29T05:18:39.691Z,87.13
2022-12-29T05:21:26.334Z,86.88
2022-12-29T05:24:53.481Z,86.80
2022-12-29T05:27:40.518Z,86.57
2022-12-29T05:30:26.910Z,86.17
2022-12-29T05:33:13.816Z,86.19
2022-12-29T05:36:10.759Z,85.74
2022-12-29T05:39:13.591Z,85.72
2022-12-29T05:43:11.453Z,85.18
2022-12-29T05:47:08.937Z,85.14
2022-12-29T05:51:28.809Z,84.79
2022-12-29T05:54:45.170Z,84.74
2022-12-29T05:58:42.279Z,84.54
2022-12-29T06:02:43.436Z,84.22
2022-12-29T06:05:31.145Z,84.21
2022-12-29T06:08:17.609Z,83.89
2022-12-29T06:11:04.817Z,83.71
2022-12-29T06:13:53.207Z,83.38
2022-12-29T06:18:08.752Z,82.99
2022-12-29T06:21:41.041Z,82.96
2022-12-29T06:25:40.367Z,83.03
2022-12-29T06:29:56.076Z,83.34
2022-12-29T06:32:41.362Z,83.19
2022-12-29T06:35:26.178Z,83.24
2022-12-29T06:38:11.399Z,82.97
2022-12-29T06:40:56.658Z,83.02
2022-12-29T06:46:07.404Z,82.84
2022-12-29T06:48:54.043Z,82.77
2022-12-29T06:51:41.788Z,82.79
2022-12-29T06:54:28.457Z,82.82
2022-12-29T06:57:15.190Z,82.73
2022-12-29T07:00:08.003Z,82.80
2022-12-29T07:02:56.381Z,82.48
2022-12-29T07:05:43.626Z,82.42
2022-12-29T07:08:30.251Z,82.44
2022-12-29T07:12:53.151Z,81.83
2022-12-29T07:15:41.900Z,81.82
2022-12-29T07:18:28.451Z,81.58
2022-12-29T07:21:18.589Z,81.37
2022-12-29T07:24:05.666Z,81.20
2022-12-29T07:26:53.006Z,81.14
2022-12-29T07:29:39.476Z,81.27
2022-12-29T07:32:26.126Z,80.91
2022-12-29T07:35:13.516Z,80.97
2022-12-29T07:37:59.827Z,80.79
2022-12-29T07:46:55.112Z,80.81
2022-12-29T09:51:07.643Z,66.45
2022-12-29T09:54:51.639Z,66.51
2022-12-29T09:57:59.254Z,66.96
2022-12-29T10:02:21.707Z,66.67
2022-12-29T10:06:03.079Z,66.57
2022-12-29T10:21:24.813Z,66.14
2022-12-29T10:24:30.764Z,66.27
2022-12-29T11:19:46.076Z,64.59
2022-12-29T11:33:38.065Z,63.65
2022-12-29T11:36:39.820Z,63.88
2022-12-29T12:13:11.516Z,64.00
2022-12-29T13:09:28.029Z,63.66
2022-12-29T13:12:46.987Z,63.96
2022-12-29T13:16:39.593Z,64.05
2022-12-29T13:30:58.951Z,64.09
2022-12-29T13:35:00.729Z,64.05
2022-12-29T13:38:06.356Z,64.22
2022-12-29T14:34:08.053Z,63.38
2022-12-29T14:37:04.241Z,63.49
2022-12-29T14:41:27.384Z,63.78
2022-12-29T14:45:43.141Z,64.10
2022-12-29T14:59:33.212Z,63.90
2022-12-29T15:02:39.455Z,63.96
2022-12-29T15:06:40.249Z,64.21
2022-12-29T15:10:50.054Z,64.43
2022-12-29T15:15:19.086Z,64.50
2022-12-29T15:18:26.923Z,64.70
2022-12-29T15:22:25.124Z,64.74
2022-12-29T15:26:45.801Z,65.05
2022-12-29T15:30:24.317Z,65.15
2022-12-29T15:34:12.093Z,65.05
2022-12-29T15:37:24.289Z,65.07
2022-12-29T15:40:25.349Z,65.24
2022-12-29T15:43:12.601Z,65.27
2022-12-29T15:46:02.345Z,65.20
2022-12-29T15:48:51.461Z,65.33
2022-12-29T15:51:40.798Z,65.35
2022-12-29T15:54:32.195Z,65.52
2022-12-29T15:57:29.847Z,65.63
2022-12-29T16:00:47.420Z,65.90
2022-12-29T16:03:37.800Z,66.00
2022-12-29T16:06:33.550Z,65.96
2022-12-29T16:09:30.282Z,66.22
2022-12-29T16:14:59.121Z,66.63
2022-12-29T16:29:58.827Z,66.71
2022-12-29T16:33:02.134Z,66.71
2022-12-29T16:36:40.642Z,66.97
2022-12-29T16:41:02.994Z,67.22
2022-12-29T16:44:30.560Z,67.47
2022-12-29T16:47:22.064Z,67.70
2022-12-29T16:50:17.236Z,67.87
2022-12-29T16:53:07.510Z,67.97
2022-12-29T16:55:56.666Z,68.00
2022-12-29T17:00:47.779Z,67.95
2022-12-29T17:04:14.286Z,68.11
2022-12-29T17:08:23.958Z,67.96
2022-12-29T17:12:26.445Z,68.12
2022-12-29T17:16:14.910Z,68.23
2022-12-29T17:19:00.041Z,68.30
2022-12-29T17:21:45.488Z,68.38
2022-12-29T17:24:30.866Z,68.22
2022-12-29T17:27:58.226Z,68.26
2022-12-29T17:30:43.852Z,68.12
2022-12-29T17:33:35.878Z,67.97
2022-12-29T17:36:20.796Z,67.77
2022-12-29T17:39:06.410Z,67.80
2022-12-29T17:41:51.889Z,67.89
2022-12-29T17:45:05.795Z,67.87
2022-12-29T17:48:32.386Z,67.89
2022-12-29T17:51:21.889Z,68.15
2022-12-29T17:54:32.430Z,68.06
2022-12-29T17:57:20.625Z,67.96
2022-12-29T18:00:10.244Z,68.12
2022-12-29T19:10:13.866Z,69.00
2022-12-29T19:13:30.919Z,69.27
2022-12-29T19:17:11.841Z,69.59
2022-12-29T19:20:35.658Z,69.83
2022-12-29T19:24:34.347Z,69.87
2022-12-29T19:28:30.856Z,69.84
2022-12-29T19:43:04.783Z,70.06
2022-12-29T19:46:08.239Z,70.05
2022-12-29T19:50:10.489Z,70.24
2022-12-29T20:04:47.558Z,69.87
2022-12-29T20:18:30.375Z,69.51
2022-12-29T20:31:55.133Z,69.09
2022-12-29T20:34:55.767Z,69.18
2022-12-29T20:49:59.104Z,69.28
2022-12-29T20:52:58.451Z,69.43
2022-12-29T20:56:47.559Z,69.41
2022-12-29T21:00:20.581Z,69.73
2022-12-29T21:04:23.918Z,70.05
2022-12-29T21:08:02.023Z,70.38
2022-12-29T21:11:34.711Z,70.27
2022-12-29T21:15:32.452Z,70.40
2022-12-29T21:19:28.671Z,70.19
2022-12-29T21:23:26.541Z,70.19
2022-12-29T21:27:22.339Z,70.24
2022-12-29T21:31:27.672Z,70.06
2022-12-29T21:35:30.831Z,69.97
2022-12-29T21:49:30.284Z,69.24
2022-12-29T22:03:23.722Z,69.15
2022-12-29T22:16:51.765Z,69.09
2022-12-29T22:19:52.419Z,69.10
2022-12-29T22:34:00.647Z,68.92
2022-12-29T22:37:16.499Z,69.22
2022-12-29T22:56:16.951Z,68.68
2022-12-29T22:59:34.853Z,68.85
2022-12-29T23:27:41.332Z,69.26
2022-12-29T23:41:41.065Z,69.16
2022-12-29T23:45:00.148Z,69.59
2022-12-29T23:48:22.951Z,69.78
2022-12-29T23:52:04.440Z,69.90
2022-12-29T23:55:33.730Z,69.90
2022-12-29T23:58:22.376Z,70.05
